Time;durP1;ratioP1;P1;durP2;ratioP2;P2;SDS_P1;SDS_P2;PMS_P1;PMS_P2;Temp;Humidity;BMP_temperature;BMP_pressure;BME280_temperature;BME280_humidity;BME280_pressure;Samples;Min_cycle;Max_cycle;Signal;HPM_P1;HPM_P2
2022/07/05 00:02:10;;;;;;;;;;;27.30;95.50;;;;;;5125270;28;19974;-47
2022/07/05 00:04:36;;;;;;;;;;;27.30;95.50;;;;;;5124446;28;19908;-45
2022/07/05 00:07:18;;;;;;;;;;;27.30;95.40;;;;;;5124677;28;19916;-47
2022/07/05 00:09:48;;;;;;;;;;;27.40;95.40;;;;;;5124780;28;19933;-51
2022/07/05 00:12:14;;;;;;;;;;;27.30;95.40;;;;;;5123703;28;19903;-46
2022/07/05 00:14:41;;;;;;;;;;;27.40;95.40;;;;;;5124583;28;19912;-46
2022/07/05 00:17:07;;;;;;;;;;;27.30;95.40;;;;;;5124277;28;19904;-50
2022/07/05 00:19:33;;;;;;;;;;;27.30;95.40;;;;;;5124906;28;19908;-49
2022/07/05 00:21:59;;;;;;;;;;;27.30;95.50;;;;;;5124416;28;19987;-53
2022/07/05 00:24:26;;;;;;;;;;;27.30;95.50;;;;;;5126989;28;19908;-45
2022/07/05 00:26:52;;;;;;;;;;;27.30;95.50;;;;;;5128805;28;19983;-43
2022/07/05 00:29:18;;;;;;;;;;;27.30;95.50;;;;;;5129280;28;20100;-45
2022/07/05 00:31:45;;;;;;;;;;;27.30;95.60;;;;;;5110726;28;19911;-47
2022/07/05 00:34:11;;;;;;;;;;;27.30;95.70;;;;;;5128408;28;19915;-48
2022/07/05 00:36:39;;;;;;;;;;;27.30;95.70;;;;;;5128526;28;19915;-49
2022/07/05 00:39:05;;;;;;;;;;;27.30;95.70;;;;;;5128892;28;19908;-44
2022/07/05 00:41:32;;;;;;;;;;;27.30;95.70;;;;;;5128429;28;19914;-50
2022/07/05 00:43:59;;;;;;;;;;;27.30;95.70;;;;;;5128715;28;20204;-52
2022/07/05 00:46:25;;;;;;;;;;;27.30;95.80;;;;;;5128249;28;19944;-47
2022/07/05 00:48:52;;;;;;;;;;;27.30;95.80;;;;;;5128788;28;19908;-51
2022/07/05 00:51:18;;;;;;;;;;;27.30;95.80;;;;;;5128233;28;19980;-52
2022/07/05 00:53:45;;;;;;;;;;;27.30;95.80;;;;;;5128493;28;19908;-51
2022/07/05 00:56:12;;;;;;;;;;;27.20;95.80;;;;;;5127951;28;19919;-52
2022/07/05 00:58:41;;;;;;;;;;;27.20;95.80;;;;;;5128737;28;19911;-57
2022/07/05 01:01:08;;;;;;;;;;;27.20;95.90;;;;;;5128072;28;19908;-47
2022/07/05 01:03:34;;;;;;;;;;;27.20;95.80;;;;;;5128267;28;19915;-51
2022/07/05 01:06:05;;;;;;;;;;;27.20;96.00;;;;;;5128164;28;19908;-49
2022/07/05 01:08:33;;;;;;;;;;;27.20;95.80;;;;;;5127794;28;19912;-51
2022/07/05 01:10:59;;;;;;;;;;;27.20;95.80;;;;;;5127772;28;19970;-49
2022/07/05 01:13:25;;;;;;;;;;;27.10;95.80;;;;;;5128141;28;19915;-52
2022/07/05 01:15:52;;;;;;;;;;;27.20;95.90;;;;;;5127676;28;19986;-43
2022/07/05 01:18:19;;;;;;;;;;;27.10;95.90;;;;;;5127724;28;19908;-45
2022/07/05 01:20:47;;;;;;;;;;;27.10;96.00;;;;;;5127707;28;19908;-45
2022/07/05 01:23:13;;;;;;;;;;;27.10;95.90;;;;;;5127807;28;19908;-48
2022/07/05 01:25:40;;;;;;;;;;;27.10;96.00;;;;;;5127420;28;19914;-45
2022/07/05 01:28:06;;;;;;;;;;;27.10;96.00;;;;;;5127797;28;19949;-53
2022/07/05 01:30:35;;;;;;;;;;;27.10;96.00;;;;;;5109162;28;19908;-49
2022/07/05 01:33:02;;;;;;;;;;;27.10;96.00;;;;;;5122250;28;19923;-48
2022/07/05 01:35:28;;;;;;;;;;;27.00;96.00;;;;;;5126584;27;20166;-45
2022/07/05 01:37:54;;;;;;;;;;;27.00;96.00;;;;;;5127028;28;19908;-44
2022/07/05 01:40:20;;;;;;;;;;;27.00;95.90;;;;;;5127320;28;19908;-46
2022/07/05 01:42:47;;;;;;;;;;;27.00;95.90;;;;;;5127430;28;19915;-50
2022/07/05 01:45:38;;;;;;;;;;;27.00;96.00;;;;;;5126999;28;19908;-54
2022/07/05 01:48:00;;;;;;;;;;;27.00;96.10;;;;;;5126752;28;19907;-44
2022/07/05 01:50:28;;;;;;;;;;;27.00;96.20;;;;;;5127220;28;19931;-49
2022/07/05 01:52:56;;;;;;;;;;;27.00;96.10;;;;;;5127301;28;19930;-51
2022/07/05 01:55:22;;;;;;;;;;;27.00;96.10;;;;;;5127175;28;19974;-48
2022/07/05 01:57:49;;;;;;;;;;;27.00;96.10;;;;;;5126834;28;19915;-47
2022/07/05 02:00:16;;;;;;;;;;;26.90;96.10;;;;;;5127262;28;19914;-51
2022/07/05 02:02:43;;;;;;;;;;;26.90;96.20;;;;;;5126863;28;20172;-45
2022/07/05 02:05:10;;;;;;;;;;;26.90;96.10;;;;;;5127038;28;19915;-47
2022/07/05 02:07:36;;;;;;;;;;;26.90;96.10;;;;;;5126868;28;20138;-43
2022/07/05 02:10:02;;;;;;;;;;;26.90;96.20;;;;;;5126549;28;19953;-45
2022/07/05 02:12:28;;;;;;;;;;;26.90;96.20;;;;;;5126776;28;20029;-48
2022/07/05 02:14:55;;;;;;;;;;;26.90;96.30;;;;;;5126619;28;19916;-51
2022/07/05 02:17:21;;;;;;;;;;;26.90;96.30;;;;;;5126470;28;20188;-53
2022/07/05 02:19:47;;;;;;;;;;;26.90;96.30;;;;;;5126684;28;19915;-45
2022/07/05 02:22:16;;;;;;;;;;;26.90;96.30;;;;;;5126281;28;19904;-47
2022/07/05 02:24:42;;;;;;;;;;;26.80;96.30;;;;;;5126299;28;19908;-48
2022/07/05 02:27:08;;;;;;;;;;;26.90;96.40;;;;;;5126209;28;19904;-44
2022/07/05 02:29:34;;;;;;;;;;;26.80;96.40;;;;;;5126654;28;20212;-46
2022/07/05 02:32:05;;;;;;;;;;;26.80;96.40;;;;;;5126186;28;19908;-56
2022/07/05 02:34:32;;;;;;;;;;;26.90;96.40;;;;;;5107619;28;19922;-48
2022/07/05 02:36:58;;;;;;;;;;;26.90;96.40;;;;;;5126013;28;19914;-45
2022/07/05 02:39:24;;;;;;;;;;;26.90;96.30;;;;;;5126422;28;20176;-43
2022/07/05 02:41:50;;;;;;;;;;;26.80;96.30;;;;;;5126494;28;19907;-47
2022/07/05 02:44:16;;;;;;;;;;;26.80;96.30;;;;;;5126553;28;19908;-46
2022/07/05 02:46:42;;;;;;;;;;;26.80;96.40;;;;;;5126120;28;19908;-48
2022/07/05 02:49:08;;;;;;;;;;;26.80;96.40;;;;;;5126671;28;19976;-47
2022/07/05 02:51:35;;;;;;;;;;;26.80;96.40;;;;;;5126118;28;19907;-46
2022/07/05 02:54:01;;;;;;;;;;;26.80;96.30;;;;;;5125966;28;20084;-46
2022/07/05 02:56:27;;;;;;;;;;;26.80;96.40;;;;;;5126015;28;19949;-45
2022/07/05 02:58:53;;;;;;;;;;;26.80;96.40;;;;;;5126263;28;19908;-44
2022/07/05 03:01:19;;;;;;;;;;;26.80;96.50;;;;;;5125818;28;20104;-43
2022/07/05 03:03:45;;;;;;;;;;;26.80;96.40;;;;;;5107435;28;19907;-48
2022/07/05 03:06:11;;;;;;;;;;;26.80;96.40;;;;;;5125662;28;19907;-54
2022/07/05 03:08:38;;;;;;;;;;;26.80;96.30;;;;;;5126405;28;19908;-45
2022/07/05 03:11:04;;;;;;;;;;;26.80;96.30;;;;;;5125506;28;20085;-44
2022/07/05 03:13:30;;;;;;;;;;;26.80;96.30;;;;;;5123079;27;19907;-47
2022/07/05 03:15:56;;;;;;;;;;;26.80;96.30;;;;;;5117021;28;19924;-44
2022/07/05 03:18:22;;;;;;;;;;;26.80;96.20;;;;;;5111845;28;19907;-45
2022/07/05 03:20:48;;;;;;;;;;;26.80;96.30;;;;;;5122230;28;19912;-47
2022/07/05 03:23:15;;;;;;;;;;;26.80;96.30;;;;;;5114120;28;19912;-44
2022/07/05 03:25:41;;;;;;;;;;;26.80;96.30;;;;;;5104713;28;20104;-45
2022/07/05 03:28:07;;;;;;;;;;;26.70;96.20;;;;;;5125801;28;20070;-45
2022/07/05 03:30:33;;;;;;;;;;;26.70;96.20;;;;;;5125314;28;19908;-43
2022/07/05 03:32:59;;;;;;;;;;;26.70;96.30;;;;;;5125223;28;19940;-44
2022/07/05 03:35:26;;;;;;;;;;;26.70;96.30;;;;;;5125339;28;19920;-48
2022/07/05 03:37:52;;;;;;;;;;;26.70;96.30;;;;;;5125258;28;19908;-50
2022/07/05 03:40:18;;;;;;;;;;;26.70;96.20;;;;;;5122089;28;19939;-48
2022/07/05 03:42:44;;;;;;;;;;;26.70;96.20;;;;;;5125094;28;19904;-48
2022/07/05 03:45:11;;;;;;;;;;;26.70;96.20;;;;;;5123138;28;20108;-45
2022/07/05 03:47:37;;;;;;;;;;;26.60;96.20;;;;;;5125292;28;20122;-49
2022/07/05 03:50:04;;;;;;;;;;;26.60;96.20;;;;;;5124874;28;19912;-47
2022/07/05 03:52:30;;;;;;;;;;;26.60;96.20;;;;;;5125781;28;19919;-47
2022/07/05 03:54:56;;;;;;;;;;;26.60;96.20;;;;;;5124987;28;19915;-49
2022/07/05 03:57:22;;;;;;;;;;;26.60;96.20;;;;;;5124745;28;19911;-47
2022/07/05 03:59:49;;;;;;;;;;;26.60;96.10;;;;;;5124287;28;19979;-49
2022/07/05 04:02:15;;;;;;;;;;;26.60;96.10;;;;;;5125202;28;19911;-49
2022/07/05 04:04:41;;;;;;;;;;;26.60;96.10;;;;;;5124728;28;19912;-44
2022/07/05 04:07:07;;;;;;;;;;;26.60;96.20;;;;;;5124836;28;20187;-46
2022/07/05 04:09:33;;;;;;;;;;;26.60;96.20;;;;;;5125383;28;19907;-46
2022/07/05 04:11:59;;;;;;;;;;;26.60;96.20;;;;;;5124555;28;19908;-43
2022/07/05 04:14:26;;;;;;;;;;;26.60;96.20;;;;;;5125307;28;19904;-44
2022/07/05 04:16:52;;;;;;;;;;;26.60;96.10;;;;;;5106919;28;20104;-45
2022/07/05 04:19:18;;;;;;;;;;;26.60;96.10;;;;;;5125337;28;19910;-43
2022/07/05 04:21:44;;;;;;;;;;;26.60;96.10;;;;;;5124870;28;19920;-50
2022/07/05 04:24:10;;;;;;;;;;;26.60;96.20;;;;;;5124652;28;19946;-45
2022/07/05 04:26:36;;;;;;;;;;;26.60;96.20;;;;;;5124547;28;19912;-43
2022/07/05 04:29:05;;;;;;;;;;;26.60;96.20;;;;;;5124932;28;20138;-47
2022/07/05 04:31:31;;;;;;;;;;;26.60;96.30;;;;;;5124863;28;20243;-44
2022/07/05 04:33:57;;;;;;;;;;;26.60;96.30;;;;;;5124724;28;19915;-46
2022/07/05 04:36:23;;;;;;;;;;;26.60;96.40;;;;;;5122637;28;19915;-49
2022/07/05 04:38:50;;;;;;;;;;;26.60;96.40;;;;;;5104413;28;19979;-47
2022/07/05 04:41:16;;;;;;;;;;;26.60;96.40;;;;;;5116551;28;19931;-42
2022/07/05 04:43:42;;;;;;;;;;;26.50;96.30;;;;;;5124659;28;20241;-51
2022/07/05 04:46:08;;;;;;;;;;;26.60;96.40;;;;;;5122464;28;20188;-44
2022/07/05 04:48:34;;;;;;;;;;;26.60;96.40;;;;;;5104195;28;19908;-45
2022/07/05 04:51:01;;;;;;;;;;;26.60;96.40;;;;;;5111787;28;19908;-45
2022/07/05 04:53:27;;;;;;;;;;;26.50;96.30;;;;;;5124310;28;19907;-45
2022/07/05 04:55:53;;;;;;;;;;;26.60;96.40;;;;;;5106139;28;19912;-49
2022/07/05 04:58:22;;;;;;;;;;;26.50;96.40;;;;;;5124508;28;19943;-51
2022/07/05 05:00:48;;;;;;;;;;;26.50;96.40;;;;;;5124801;28;19978;-49
2022/07/05 05:03:14;;;;;;;;;;;26.50;96.50;;;;;;5105355;28;19908;-49
2022/07/05 05:05:40;;;;;;;;;;;26.50;96.50;;;;;;5104236;28;19912;-45
2022/07/05 05:08:07;;;;;;;;;;;26.50;96.50;;;;;;5104499;28;19909;-45
2022/07/05 05:10:33;;;;;;;;;;;26.50;96.50;;;;;;5104730;28;19915;-44
2022/07/05 05:12:59;;;;;;;;;;;26.50;96.50;;;;;;5107729;28;19908;-41
2022/07/05 05:15:25;;;;;;;;;;;26.50;96.50;;;;;;5107731;28;19927;-42
2022/07/05 05:17:51;;;;;;;;;;;26.50;96.50;;;;;;5107995;28;19979;-47
2022/07/05 05:20:19;;;;;;;;;;;26.50;96.40;;;;;;5107372;28;19909;-47
2022/07/05 05:22:45;;;;;;;;;;;26.50;96.50;;;;;;5089344;28;20131;-42
2022/07/05 05:25:12;;;;;;;;;;;26.50;96.60;;;;;;5107250;28;19909;-45
2022/07/05 05:27:45;;;;;;;;;;;26.50;96.50;;;;;;5107412;28;19947;-50
2022/07/05 05:30:12;;;;;;;;;;;26.50;96.50;;;;;;5107543;28;19961;-48
2022/07/05 05:32:38;;;;;;;;;;;26.50;96.50;;;;;;5107419;28;19939;-45
2022/07/05 05:35:04;;;;;;;;;;;26.50;96.50;;;;;;5106683;28;19920;-42
2022/07/05 05:37:31;;;;;;;;;;;26.50;96.50;;;;;;5106780;28;19911;-47
2022/07/05 05:39:57;;;;;;;;;;;26.50;96.50;;;;;;5106947;28;19908;-43
2022/07/05 05:42:23;;;;;;;;;;;26.50;96.40;;;;;;5106758;28;19971;-44
2022/07/05 05:44:49;;;;;;;;;;;26.50;96.40;;;;;;5106825;28;19912;-43
2022/07/05 05:47:15;;;;;;;;;;;26.40;96.30;;;;;;5106851;28;19967;-48
2022/07/05 05:49:41;;;;;;;;;;;26.40;96.30;;;;;;5106695;28;19909;-49
2022/07/05 05:52:07;;;;;;;;;;;26.40;96.30;;;;;;5106647;28;19904;-43
2022/07/05 05:54:33;;;;;;;;;;;26.40;96.30;;;;;;5107482;28;20176;-45
2022/07/05 05:56:59;;;;;;;;;;;26.40;96.40;;;;;;5106695;28;19909;-47
2022/07/05 05:59:25;;;;;;;;;;;26.40;96.30;;;;;;5107202;28;19914;-42
2022/07/05 06:01:52;;;;;;;;;;;26.40;96.30;;;;;;5107018;28;20252;-47
2022/07/05 06:04:18;;;;;;;;;;;26.40;96.40;;;;;;5107129;28;20006;-43
2022/07/05 06:06:44;;;;;;;;;;;26.30;96.40;;;;;;5106610;28;19915;-43
2022/07/05 06:09:10;;;;;;;;;;;26.30;96.40;;;;;;5106336;28;19950;-43
2022/07/05 06:11:36;;;;;;;;;;;26.30;96.40;;;;;;5106508;28;19987;-43
2022/07/05 06:14:02;;;;;;;;;;;26.30;96.40;;;;;;5106927;28;19943;-48
2022/07/05 06:16:28;;;;;;;;;;;26.30;96.40;;;;;;5106471;28;19912;-43
2022/07/05 06:18:54;;;;;;;;;;;26.30;96.40;;;;;;5106378;28;19912;-42
2022/07/05 06:21:21;;;;;;;;;;;26.30;96.40;;;;;;5105746;28;19908;-49
2022/07/05 06:23:47;;;;;;;;;;;26.30;96.40;;;;;;5106540;28;19908;-42
2022/07/05 06:26:13;;;;;;;;;;;26.30;96.40;;;;;;5106250;28;19908;-44
2022/07/05 06:28:39;;;;;;;;;;;26.30;96.30;;;;;;5106368;28;19908;-47
2022/07/05 06:31:05;;;;;;;;;;;26.30;96.30;;;;;;5105897;28;19908;-43
2022/07/05 06:33:31;;;;;;;;;;;26.30;96.30;;;;;;5105781;28;19923;-51
2022/07/05 06:35:57;;;;;;;;;;;26.30;96.60;;;;;;5105702;28;19916;-51
2022/07/05 06:38:23;;;;;;;;;;;26.30;96.20;;;;;;5106100;28;19908;-40
2022/07/05 06:40:49;;;;;;;;;;;26.30;96.20;;;;;;5106134;28;19912;-42
2022/07/05 06:43:16;;;;;;;;;;;26.30;96.10;;;;;;5105907;28;19908;-48
2022/07/05 06:45:42;;;;;;;;;;;26.30;96.00;;;;;;5105878;28;19908;-49
2022/07/05 06:48:09;;;;;;;;;;;26.30;96.00;;;;;;5105832;28;19931;-49
2022/07/05 06:50:39;;;;;;;;;;;26.30;96.10;;;;;;5105370;28;20220;-49
2022/07/05 06:53:05;;;;;;;;;;;26.30;96.10;;;;;;5105548;28;19908;-45
2022/07/05 06:55:32;;;;;;;;;;;26.30;96.00;;;;;;5105348;28;19913;-49
2022/07/05 06:58:05;;;;;;;;;;;26.30;96.00;;;;;;5105405;28;20065;-48
2022/07/05 07:00:34;;;;;;;;;;;26.30;96.00;;;;;;5105069;28;19950;-49
2022/07/05 07:03:01;;;;;;;;;;;26.30;96.00;;;;;;5106045;28;19908;-54
2022/07/05 07:05:27;;;;;;;;;;;26.20;96.00;;;;;;5105593;28;19975;-46
2022/07/05 07:10:38;;;;;;;;;;;26.20;95.90;;;;;;5105711;28;19915;-44
2022/07/05 07:13:04;;;;;;;;;;;26.20;96.10;;;;;;5105190;28;19915;-56
2022/07/05 07:15:31;;;;;;;;;;;26.20;96.00;;;;;;5104949;28;19919;-52
2022/07/05 07:17:57;;;;;;;;;;;26.10;96.10;;;;;;5105228;28;19930;-43
2022/07/05 07:20:23;;;;;;;;;;;26.10;96.00;;;;;;5104950;28;19919;-45
2022/07/05 07:22:50;;;;;;;;;;;26.10;96.10;;;;;;5104939;28;19949;-48
2022/07/05 07:25:17;;;;;;;;;;;26.10;96.00;;;;;;5105062;28;19930;-47
2022/07/05 07:27:53;;;;;;;;;;;26.10;95.90;;;;;;5104790;28;20131;-44
2022/07/05 07:30:23;;;;;;;;;;;26.10;96.00;;;;;;5105227;28;19908;-52
2022/07/05 07:32:50;;;;;;;;;;;26.10;96.00;;;;;;5104627;28;19931;-51
2022/07/05 07:35:16;;;;;;;;;;;26.00;96.00;;;;;;5104250;28;20108;-50
2022/07/05 07:37:42;;;;;;;;;;;26.10;96.00;;;;;;5104763;28;19908;-50
2022/07/05 07:40:09;;;;;;;;;;;26.00;96.00;;;;;;5105072;28;19912;-48
2022/07/05 07:42:35;;;;;;;;;;;26.00;96.00;;;;;;5104750;28;19915;-46
2022/07/05 07:45:03;;;;;;;;;;;26.00;96.00;;;;;;5105068;28;19908;-43
2022/07/05 07:47:33;;;;;;;;;;;26.00;96.00;;;;;;5104722;28;19911;-44
2022/07/05 07:49:59;;;;;;;;;;;26.00;95.90;;;;;;5104747;28;19971;-47
2022/07/05 07:52:26;;;;;;;;;;;26.00;95.90;;;;;;5104538;28;19904;-44
2022/07/05 07:54:52;;;;;;;;;;;26.00;95.90;;;;;;5104375;28;19983;-48
2022/07/05 07:57:18;;;;;;;;;;;26.00;95.90;;;;;;5104427;28;19904;-44
2022/07/05 07:59:44;;;;;;;;;;;25.90;95.90;;;;;;5104899;28;19950;-44
2022/07/05 08:02:11;;;;;;;;;;;25.90;95.90;;;;;;5104671;28;19979;-46
2022/07/05 08:04:37;;;;;;;;;;;25.90;95.90;;;;;;5104368;28;19920;-49
2022/07/05 08:07:03;;;;;;;;;;;25.90;95.80;;;;;;5104652;28;19908;-50
2022/07/05 08:09:30;;;;;;;;;;;25.90;95.80;;;;;;5104718;28;19945;-51
2022/07/05 08:11:56;;;;;;;;;;;25.90;95.80;;;;;;5104283;28;19915;-44
2022/07/05 08:14:23;;;;;;;;;;;25.90;95.80;;;;;;5104760;28;20070;-42
2022/07/05 08:16:49;;;;;;;;;;;25.90;95.70;;;;;;5104588;28;20162;-44
2022/07/05 08:22:01;;;;;;;;;;;25.80;95.70;;;;;;5104371;28;20096;-49
2022/07/05 08:24:28;;;;;;;;;;;25.80;95.70;;;;;;5104657;28;19908;-50
2022/07/05 08:26:54;;;;;;;;;;;25.80;95.70;;;;;;5104035;28;20193;-52
2022/07/05 08:29:20;;;;;;;;;;;25.80;95.80;;;;;;5104780;28;19908;-47
2022/07/05 08:31:47;;;;;;;;;;;25.80;95.80;;;;;;5104240;28;19915;-43
2022/07/05 08:34:14;;;;;;;;;;;25.80;95.80;;;;;;5104018;28;19975;-49
2022/07/05 08:36:41;;;;;;;;;;;25.80;95.80;;;;;;5104395;28;19919;-47
2022/07/05 08:39:08;;;;;;;;;;;25.70;95.80;;;;;;5105186;28;19908;-45
2022/07/05 08:41:38;;;;;;;;;;;25.70;95.80;;;;;;5104178;28;19936;-45
2022/07/05 08:44:05;;;;;;;;;;;25.70;95.80;;;;;;5104782;28;19915;-52
2022/07/05 08:46:32;;;;;;;;;;;25.70;95.80;;;;;;5108233;28;19909;-45
2022/07/05 08:49:03;;;;;;;;;;;25.70;95.90;;;;;;5108063;28;19908;-45
2022/07/05 08:51:32;;;;;;;;;;;25.70;95.80;;;;;;5107912;28;20059;-52
2022/07/05 08:53:58;;;;;;;;;;;25.70;95.70;;;;;;5108656;28;19953;-46
2022/07/05 08:56:24;;;;;;;;;;;25.70;95.80;;;;;;5108537;28;20196;-51
2022/07/05 08:58:50;;;;;;;;;;;25.70;95.70;;;;;;5108421;28;19916;-50
2022/07/05 09:01:16;;;;;;;;;;;25.70;95.70;;;;;;5107853;28;19931;-47
2022/07/05 09:03:47;;;;;;;;;;;25.70;95.60;;;;;;5107803;28;19912;-49
2022/07/05 09:06:16;;;;;;;;;;;25.70;95.70;;;;;;5107626;28;20197;-44
2022/07/05 09:08:42;;;;;;;;;;;25.60;95.70;;;;;;5107777;28;20084;-44
2022/07/05 09:11:09;;;;;;;;;;;25.60;95.70;;;;;;5107209;28;19915;-50
2022/07/05 09:13:37;;;;;;;;;;;25.60;95.70;;;;;;5107688;28;19908;-51
2022/07/05 09:16:03;;;;;;;;;;;25.60;95.70;;;;;;5107088;28;19912;-46
2022/07/05 09:18:49;;;;;;;;;;;25.60;95.70;;;;;;5107465;28;20188;-45
2022/07/05 09:21:19;;;;;;;;;;;25.60;95.70;;;;;;5107264;28;19908;-43
2022/07/05 09:23:54;;;;;;;;;;;25.60;95.70;;;;;;5107020;28;19908;-48
2022/07/05 09:26:20;;;;;;;;;;;25.60;95.70;;;;;;5107148;28;20108;-42
2022/07/05 09:28:56;;;;;;;;;;;25.50;95.60;;;;;;5107286;28;19912;-44
2022/07/05 09:31:27;;;;;;;;;;;25.50;95.60;;;;;;5107072;28;19908;-48
2022/07/05 09:33:53;;;;;;;;;;;25.50;95.60;;;;;;5106903;28;19916;-44
2022/07/05 09:36:19;;;;;;;;;;;25.50;95.60;;;;;;5107259;28;19912;-44
2022/07/05 09:38:50;;;;;;;;;;;25.50;95.60;;;;;;5107320;28;20112;-47
2022/07/05 09:41:16;;;;;;;;;;;25.50;95.60;;;;;;5106995;28;19908;-44
2022/07/05 09:43:42;;;;;;;;;;;25.50;95.60;;;;;;5107343;28;20143;-50
2022/07/05 09:46:09;;;;;;;;;;;25.40;95.50;;;;;;5106963;28;19915;-52
2022/07/05 09:48:35;;;;;;;;;;;25.40;95.50;;;;;;5107356;28;19922;-44
2022/07/05 09:51:06;;;;;;;;;;;25.40;95.60;;;;;;5107227;28;19971;-49
2022/07/05 09:53:49;;;;;;;;;;;25.40;95.60;;;;;;5126351;28;19912;-45
2022/07/05 09:56:15;;;;;;;;;;;25.40;95.60;;;;;;5122826;28;20220;-46
2022/07/05 09:58:42;;;;;;;;;;;25.40;95.60;;;;;;5126656;28;19908;-46
2022/07/05 10:01:27;;;;;;;;;;;25.40;95.60;;;;;;5116661;28;19957;-44
2022/07/05 10:03:54;;;;;;;;;;;25.40;95.60;;;;;;5127269;28;19944;-45
2022/07/05 10:06:23;;;;;;;;;;;25.40;95.70;;;;;;5120299;28;19919;-43
2022/07/05 10:08:50;;;;;;;;;;;25.40;95.70;;;;;;5126933;28;19979;-50
2022/07/05 10:11:19;;;;;;;;;;;25.40;95.70;;;;;;5127113;28;19935;-50
2022/07/05 10:13:49;;;;;;;;;;;25.40;95.70;;;;;;5126971;28;19904;-50
2022/07/05 10:16:17;;;;;;;;;;;25.40;95.80;;;;;;5126546;28;19915;-47
2022/07/05 10:18:46;;;;;;;;;;;25.40;95.80;;;;;;5127091;28;20136;-48
2022/07/05 10:21:14;;;;;;;;;;;25.40;95.70;;;;;;5126636;28;19943;-44
2022/07/05 10:23:47;;;;;;;;;;;25.40;95.80;;;;;;5126698;28;19904;-46
2022/07/05 10:26:15;;;;;;;;;;;25.40;95.80;;;;;;5126567;28;19986;-45
2022/07/05 10:28:44;;;;;;;;;;;25.30;95.70;;;;;;5126858;28;19903;-43
2022/07/05 10:31:10;;;;;;;;;;;25.30;95.70;;;;;;5126585;28;19920;-44
2022/07/05 10:33:37;;;;;;;;;;;25.30;95.70;;;;;;5126309;28;19915;-51
2022/07/05 10:36:07;;;;;;;;;;;25.30;95.70;;;;;;5126159;28;19912;-52
2022/07/05 10:38:37;;;;;;;;;;;25.30;95.80;;;;;;5126544;28;20148;-48
2022/07/05 10:41:05;;;;;;;;;;;25.30;95.90;;;;;;5126241;28;20097;-50
2022/07/05 10:43:32;;;;;;;;;;;25.30;95.90;;;;;;5126940;28;19911;-44
2022/07/05 10:45:58;;;;;;;;;;;25.30;95.90;;;;;;5125939;28;19916;-45
2022/07/05 10:48:28;;;;;;;;;;;25.30;96.00;;;;;;5126361;28;19915;-45
2022/07/05 10:51:14;;;;;;;;;;;25.30;96.00;;;;;;5126018;28;19974;-45
2022/07/05 10:53:40;;;;;;;;;;;25.30;96.00;;;;;;5126327;28;19908;-44
2022/07/05 10:56:06;;;;;;;;;;;25.30;96.00;;;;;;5125742;28;20204;-51
2022/07/05 10:58:33;;;;;;;;;;;25.30;96.00;;;;;;5126116;28;19924;-45
2022/07/05 11:01:23;;;;;;;;;;;25.30;96.10;;;;;;5125857;28;19987;-52
2022/07/05 11:04:01;;;;;;;;;;;25.30;96.10;;;;;;5112845;28;19908;-48
2022/07/05 11:06:28;;;;;;;;;;;25.30;96.10;;;;;;5125660;28;19908;-47
2022/07/05 11:08:57;;;;;;;;;;;25.30;96.10;;;;;;5125903;28;19908;-49
2022/07/05 11:11:24;;;;;;;;;;;25.30;96.10;;;;;;5125580;28;19961;-51
2022/07/05 11:13:51;;;;;;;;;;;25.30;96.10;;;;;;5126318;28;19907;-51
2022/07/05 11:16:20;;;;;;;;;;;25.30;96.00;;;;;;5125491;28;19912;-61
2022/07/05 11:18:46;;;;;;;;;;;25.30;96.00;;;;;;5125934;28;19907;-44
2022/07/05 11:21:22;;;;;;;;;;;25.40;96.20;;;;;;5125368;28;19908;-44
2022/07/05 11:23:48;;;;;;;;;;;25.40;96.20;;;;;;5125656;28;19919;-48
2022/07/05 11:26:18;;;;;;;;;;;25.40;96.30;;;;;;5125393;28;20099;-46
2022/07/05 11:28:45;;;;;;;;;;;25.40;96.20;;;;;;5125583;28;19908;-42
2022/07/05 11:31:11;;;;;;;;;;;25.40;96.30;;;;;;5125324;28;19916;-45
2022/07/05 11:33:39;;;;;;;;;;;25.40;96.30;;;;;;5125436;28;19916;-45
2022/07/05 11:36:28;;;;;;;;;;;25.40;96.20;;;;;;5125149;28;19918;-50
2022/07/05 11:39:12;;;;;;;;;;;25.40;96.20;;;;;;5125224;28;20155;-49
2022/07/05 11:41:41;;;;;;;;;;;25.40;96.10;;;;;;5124766;28;19910;-44
2022/07/05 11:44:10;;;;;;;;;;;25.40;96.20;;;;;;5126042;28;19949;-44
2022/07/05 11:46:36;;;;;;;;;;;25.50;96.20;;;;;;5125280;28;19935;-43
2022/07/05 11:49:03;;;;;;;;;;;25.50;96.30;;;;;;5125931;28;19912;-45
2022/07/05 11:51:29;;;;;;;;;;;25.50;96.30;;;;;;5124951;28;19903;-44
2022/07/05 11:53:56;;;;;;;;;;;25.50;96.30;;;;;;5124771;28;20112;-45
2022/07/05 11:56:22;;;;;;;;;;;25.50;96.30;;;;;;5124719;28;19949;-44
2022/07/05 11:58:48;;;;;;;;;;;25.50;96.30;;;;;;5125487;28;19919;-49
2022/07/05 12:01:14;;;;;;;;;;;25.60;96.20;;;;;;5124941;28;19904;-52
2022/07/05 12:03:40;;;;;;;;;;;25.60;96.30;;;;;;5125152;28;19943;-49
2022/07/05 12:06:11;;;;;;;;;;;25.60;96.40;;;;;;5124713;28;19941;-45
2022/07/05 12:08:37;;;;;;;;;;;25.70;96.50;;;;;;5106959;28;19949;-46
2022/07/05 12:13:49;;;;;;;;;;;25.80;96.30;;;;;;5125328;28;19919;-45
2022/07/05 12:16:15;;;;;;;;;;;25.80;96.30;;;;;;5124632;28;19907;-47
2022/07/05 12:18:48;;;;;;;;;;;25.90;96.30;;;;;;5125085;28;19919;-50
2022/07/05 12:21:17;;;;;;;;;;;25.90;96.40;;;;;;5128281;28;20211;-46
2022/07/05 12:23:44;;;;;;;;;;;26.00;96.50;;;;;;5128963;28;19919;-46
2022/07/05 12:26:14;;;;;;;;;;;26.00;96.40;;;;;;5129090;28;19911;-44
2022/07/05 12:28:41;;;;;;;;;;;26.00;96.30;;;;;;5128589;28;19916;-43
2022/07/05 12:31:15;;;;;;;;;;;26.10;96.30;;;;;;5129162;28;20100;-47
2022/07/05 12:33:41;;;;;;;;;;;26.10;96.30;;;;;;5129063;28;19957;-44
2022/07/05 12:36:11;;;;;;;;;;;26.10;96.10;;;;;;5128526;28;19915;-42
2022/07/05 12:38:37;;;;;;;;;;;26.20;96.10;;;;;;5128677;28;20139;-44
2022/07/05 12:41:03;;;;;;;;;;;26.20;95.90;;;;;;5128856;28;19903;-43
2022/07/05 12:43:29;;;;;;;;;;;26.30;95.90;;;;;;5128878;28;19915;-54
2022/07/05 12:46:00;;;;;;;;;;;26.30;95.80;;;;;;5128886;28;19931;-48
2022/07/05 12:48:36;;;;;;;;;;;26.30;95.80;;;;;;5128856;28;19915;-42
2022/07/05 12:51:03;;;;;;;;;;;26.30;95.70;;;;;;5128354;28;19908;-48
2022/07/05 12:58:59;;;;;;;;;;;26.40;95.70;;;;;;5128969;28;20017;-52
2022/07/05 13:01:34;;;;;;;;;;;26.30;95.60;;;;;;5126566;28;20138;-41
2022/07/05 13:04:11;;;;;;;;;;;26.40;95.60;;;;;;5118068;28;19912;-48
2022/07/05 13:06:45;;;;;;;;;;;26.40;95.50;;;;;;5100271;28;19907;-44
2022/07/05 13:09:11;;;;;;;;;;;26.40;95.60;;;;;;5127858;28;19908;-44
2022/07/05 13:11:38;;;;;;;;;;;26.40;95.60;;;;;;5126762;28;20234;-43
2022/07/05 13:14:04;;;;;;;;;;;26.40;95.60;;;;;;5112222;28;19912;-46
2022/07/05 13:16:30;;;;;;;;;;;26.40;95.70;;;;;;5107466;28;19909;-44
2022/07/05 13:19:07;;;;;;;;;;;26.40;95.90;;;;;;5107714;28;19958;-45
2022/07/05 13:21:33;;;;;;;;;;;26.40;95.80;;;;;;5107069;28;19971;-43
2022/07/05 13:23:59;;;;;;;;;;;26.40;95.70;;;;;;5107225;28;19914;-43
2022/07/05 13:26:25;;;;;;;;;;;26.50;95.70;;;;;;5107014;28;19904;-44
2022/07/05 13:28:51;;;;;;;;;;;26.50;95.60;;;;;;5107376;28;19919;-47
2022/07/05 13:31:17;;;;;;;;;;;26.60;95.60;;;;;;5105689;28;20135;-44
2022/07/05 13:33:45;;;;;;;;;;;26.60;95.60;;;;;;5106901;28;19965;-47
2022/07/05 13:36:11;;;;;;;;;;;26.60;95.50;;;;;;5106761;28;19988;-44
2022/07/05 13:38:37;;;;;;;;;;;26.70;95.60;;;;;;5107071;28;19912;-47
2022/07/05 13:41:03;;;;;;;;;;;26.70;95.50;;;;;;5109859;28;19904;-42
2022/07/05 13:43:29;;;;;;;;;;;26.80;95.60;;;;;;5127492;28;19943;-45
2022/07/05 13:45:56;;;;;;;;;;;26.80;95.50;;;;;;5127214;28;19978;-45
2022/07/05 13:48:22;;;;;;;;;;;26.80;95.50;;;;;;5109359;28;20188;-50
2022/07/05 13:50:48;;;;;;;;;;;26.90;95.60;;;;;;5120718;28;19907;-43
2022/07/05 13:53:14;;;;;;;;;;;26.90;95.40;;;;;;5109347;28;19912;-44
2022/07/05 13:55:40;;;;;;;;;;;26.90;95.40;;;;;;5106640;28;19965;-45
2022/07/05 13:58:06;;;;;;;;;;;26.90;95.30;;;;;;5106777;28;19958;-44
2022/07/05 14:00:32;;;;;;;;;;;27.00;95.20;;;;;;5120631;28;19908;-45
2022/07/05 14:02:59;;;;;;;;;;;27.00;95.10;;;;;;5127458;28;19912;-43
2022/07/05 14:05:25;;;;;;;;;;;27.00;95.20;;;;;;5120856;28;19907;-44
2022/07/05 14:07:51;;;;;;;;;;;27.10;95.40;;;;;;5122778;28;19912;-44
2022/07/05 14:10:17;;;;;;;;;;;27.10;95.30;;;;;;5116089;28;19908;-43
2022/07/05 14:12:43;;;;;;;;;;;27.20;95.40;;;;;;5126876;28;19908;-44
2022/07/05 14:15:09;;;;;;;;;;;27.20;95.40;;;;;;5126408;28;19912;-44
2022/07/05 14:17:36;;;;;;;;;;;27.20;95.40;;;;;;5126545;28;19907;-44
2022/07/05 14:20:02;;;;;;;;;;;27.30;95.30;;;;;;5126288;28;20159;-46
2022/07/05 14:22:28;;;;;;;;;;;27.30;95.10;;;;;;5124477;28;19914;-44
2022/07/05 14:24:54;;;;;;;;;;;27.30;95.30;;;;;;5126490;28;20167;-45
2022/07/05 14:27:20;;;;;;;;;;;27.30;95.40;;;;;;5126507;28;19939;-45
2022/07/05 14:29:46;;;;;;;;;;;27.30;95.10;;;;;;5126505;28;19949;-45
2022/07/05 14:32:12;;;;;;;;;;;27.40;95.00;;;;;;5126206;28;19904;-46